sensor_id;sensor_type;location;lat;lon;timestamp;P1;durP1;ratioP1;P2;durP2;ratioP2
29634;SDS011;16557;54.762;56.068;2023-05-10T00:00:41;3.58;;;1.10;;
29634;SDS011;16557;54.762;56.068;2023-05-10T00:03:11;2.25;;;1.17;;
29634;SDS011;16557;54.762;56.068;2023-05-10T00:05:40;3.95;;;1.20;;
29634;SDS011;16557;54.762;56.068;2023-05-10T00:08:09;5.55;;;1.50;;
29634;SDS011;16557;54.762;56.068;2023-05-10T00:10:38;2.27;;;1.30;;
29634;SDS011;16557;54.762;56.068;2023-05-10T00:13:08;2.42;;;1.05;;
29634;SDS011;16557;54.762;56.068;2023-05-10T00:15:37;3.95;;;1.35;;
29634;SDS011;16557;54.762;56.068;2023-05-10T00:18:07;1.98;;;1.10;;
29634;SDS011;16557;54.762;56.068;2023-05-10T00:20:36;2.85;;;1.07;;
29634;SDS011;16557;54.762;56.068;2023-05-10T00:23:05;2.98;;;1.40;;
29634;SDS011;16557;54.762;56.068;2023-05-10T00:25:35;3.00;;;0.90;;
29634;SDS011;16557;54.762;56.068;2023-05-10T00:28:04;3.50;;;0.85;;
29634;SDS011;16557;54.762;56.068;2023-05-10T00:30:33;2.92;;;0.88;;
29634;SDS011;16557;54.762;56.068;2023-05-10T00:33:02;4.40;;;1.00;;
29634;SDS011;16557;54.762;56.068;2023-05-10T00:35:32;2.60;;;1.10;;
29634;SDS011;16557;54.762;56.068;2023-05-10T00:38:02;6.10;;;2.52;;
29634;SDS011;16557;54.762;56.068;2023-05-10T00:40:31;1.65;;;1.20;;
29634;SDS011;16557;54.762;56.068;2023-05-10T00:43:00;3.42;;;1.50;;
29634;SDS011;16557;54.762;56.068;2023-05-10T00:45:31;5.53;;;1.25;;
29634;SDS011;16557;54.762;56.068;2023-05-10T00:48:01;3.90;;;1.22;;
29634;SDS011;16557;54.762;56.068;2023-05-10T00:50:31;4.90;;;0.95;;
29634;SDS011;16557;54.762;56.068;2023-05-10T00:53:02;3.98;;;1.12;;
29634;SDS011;16557;54.762;56.068;2023-05-10T00:55:31;3.30;;;1.67;;
29634;SDS011;16557;54.762;56.068;2023-05-10T00:58:00;2.10;;;1.07;;
29634;SDS011;16557;54.762;56.068;2023-05-10T01:00:30;2.17;;;0.98;;
29634;SDS011;16557;54.762;56.068;2023-05-10T01:03:01;6.87;;;1.40;;
29634;SDS011;16557;54.762;56.068;2023-05-10T01:05:31;3.90;;;1.20;;
29634;SDS011;16557;54.762;56.068;2023-05-10T01:08:01;3.08;;;1.10;;
29634;SDS011;16557;54.762;56.068;2023-05-10T01:10:30;6.92;;;1.15;;
29634;SDS011;16557;54.762;56.068;2023-05-10T01:13:00;3.58;;;1.17;;
29634;SDS011;16557;54.762;56.068;2023-05-10T01:15:30;1.25;;;0.75;;
29634;SDS011;16557;54.762;56.068;2023-05-10T01:18:00;9.90;;;1.77;;
29634;SDS011;16557;54.762;56.068;2023-05-10T01:20:32;4.78;;;1.07;;
29634;SDS011;16557;54.762;56.068;2023-05-10T01:23:07;2.20;;;1.10;;
29634;SDS011;16557;54.762;56.068;2023-05-10T01:31:07;4.58;;;1.15;;
29634;SDS011;16557;54.762;56.068;2023-05-10T01:33:52;4.15;;;1.10;;
29634;SDS011;16557;54.762;56.068;2023-05-10T01:41:55;6.58;;;1.50;;
29634;SDS011;16557;54.762;56.068;2023-05-10T01:44:43;6.28;;;1.50;;
29634;SDS011;16557;54.762;56.068;2023-05-10T01:47:20;8.65;;;1.20;;
29634;SDS011;16557;54.762;56.068;2023-05-10T01:49:55;3.00;;;1.20;;
29634;SDS011;16557;54.762;56.068;2023-05-10T01:52:32;3.67;;;1.32;;
29634;SDS011;16557;54.762;56.068;2023-05-10T01:55:02;2.75;;;1.25;;
29634;SDS011;16557;54.762;56.068;2023-05-10T01:57:33;5.47;;;1.25;;
29634;SDS011;16557;54.762;56.068;2023-05-10T02:00:07;4.55;;;1.75;;
29634;SDS011;16557;54.762;56.068;2023-05-10T02:02:38;5.42;;;1.80;;
29634;SDS011;16557;54.762;56.068;2023-05-10T02:05:09;3.77;;;1.20;;
29634;SDS011;16557;54.762;56.068;2023-05-10T02:07:40;5.67;;;1.95;;
29634;SDS011;16557;54.762;56.068;2023-05-10T02:10:10;11.80;;;3.42;;
29634;SDS011;16557;54.762;56.068;2023-05-10T02:12:47;8.03;;;2.02;;
29634;SDS011;16557;54.762;56.068;2023-05-10T02:15:15;5.72;;;1.77;;
29634;SDS011;16557;54.762;56.068;2023-05-10T02:17:47;4.20;;;1.80;;
29634;SDS011;16557;54.762;56.068;2023-05-10T02:20:17;4.33;;;1.60;;
29634;SDS011;16557;54.762;56.068;2023-05-10T02:22:48;7.20;;;2.15;;
29634;SDS011;16557;54.762;56.068;2023-05-10T02:25:19;6.83;;;1.75;;
29634;SDS011;16557;54.762;56.068;2023-05-10T02:27:49;7.17;;;1.60;;
29634;SDS011;16557;54.762;56.068;2023-05-10T02:30:20;5.20;;;1.92;;
29634;SDS011;16557;54.762;56.068;2023-05-10T02:32:51;15.53;;;2.37;;
29634;SDS011;16557;54.762;56.068;2023-05-10T02:35:20;13.50;;;1.92;;
29634;SDS011;16557;54.762;56.068;2023-05-10T02:37:50;6.00;;;1.37;;
29634;SDS011;16557;54.762;56.068;2023-05-10T02:40:19;7.05;;;1.30;;
29634;SDS011;16557;54.762;56.068;2023-05-10T02:42:50;5.72;;;1.82;;
29634;SDS011;16557;54.762;56.068;2023-05-10T02:45:24;7.67;;;1.55;;
29634;SDS011;16557;54.762;56.068;2023-05-10T02:47:54;5.92;;;1.80;;
29634;SDS011;16557;54.762;56.068;2023-05-10T02:50:25;9.65;;;2.40;;
29634;SDS011;16557;54.762;56.068;2023-05-10T02:53:04;16.65;;;2.50;;
29634;SDS011;16557;54.762;56.068;2023-05-10T02:55:35;13.48;;;3.33;;
29634;SDS011;16557;54.762;56.068;2023-05-10T02:58:05;19.90;;;3.62;;
29634;SDS011;16557;54.762;56.068;2023-05-10T03:00:35;19.37;;;2.92;;
29634;SDS011;16557;54.762;56.068;2023-05-10T03:03:04;5.83;;;2.02;;
29634;SDS011;16557;54.762;56.068;2023-05-10T03:05:34;6.28;;;1.75;;
29634;SDS011;16557;54.762;56.068;2023-05-10T03:08:03;10.30;;;2.27;;
29634;SDS011;16557;54.762;56.068;2023-05-10T03:10:33;11.45;;;2.98;;
29634;SDS011;16557;54.762;56.068;2023-05-10T03:13:07;20.17;;;2.52;;
29634;SDS011;16557;54.762;56.068;2023-05-10T03:15:47;15.23;;;1.90;;
29634;SDS011;16557;54.762;56.068;2023-05-10T03:18:42;9.50;;;2.30;;
29634;SDS011;16557;54.762;56.068;2023-05-10T03:21:26;14.87;;;3.47;;
29634;SDS011;16557;54.762;56.068;2023-05-10T03:24:03;9.05;;;1.80;;
29634;SDS011;16557;54.762;56.068;2023-05-10T03:26:32;9.23;;;2.70;;
29634;SDS011;16557;54.762;56.068;2023-05-10T03:29:02;12.63;;;2.50;;
29634;SDS011;16557;54.762;56.068;2023-05-10T03:31:32;8.03;;;2.08;;
29634;SDS011;16557;54.762;56.068;2023-05-10T03:34:03;5.12;;;1.60;;
29634;SDS011;16557;54.762;56.068;2023-05-10T03:36:34;6.30;;;1.82;;
29634;SDS011;16557;54.762;56.068;2023-05-10T03:39:03;16.48;;;2.83;;
29634;SDS011;16557;54.762;56.068;2023-05-10T03:41:33;22.55;;;3.22;;
29634;SDS011;16557;54.762;56.068;2023-05-10T03:44:02;5.30;;;1.77;;
29634;SDS011;16557;54.762;56.068;2023-05-10T03:46:31;8.63;;;1.65;;
29634;SDS011;16557;54.762;56.068;2023-05-10T03:49:01;9.08;;;1.80;;
29634;SDS011;16557;54.762;56.068;2023-05-10T03:51:30;12.20;;;1.90;;
29634;SDS011;16557;54.762;56.068;2023-05-10T03:54:00;7.17;;;2.02;;
29634;SDS011;16557;54.762;56.068;2023-05-10T03:56:29;5.33;;;1.65;;
29634;SDS011;16557;54.762;56.068;2023-05-10T03:58:58;7.20;;;2.12;;
29634;SDS011;16557;54.762;56.068;2023-05-10T04:01:28;5.78;;;1.60;;
29634;SDS011;16557;54.762;56.068;2023-05-10T04:03:57;5.05;;;1.67;;
29634;SDS011;16557;54.762;56.068;2023-05-10T04:06:26;7.92;;;1.77;;
29634;SDS011;16557;54.762;56.068;2023-05-10T04:08:59;6.33;;;1.80;;
29634;SDS011;16557;54.762;56.068;2023-05-10T04:11:30;6.47;;;1.85;;
29634;SDS011;16557;54.762;56.068;2023-05-10T04:13:59;8.93;;;1.90;;
29634;SDS011;16557;54.762;56.068;2023-05-10T04:16:28;7.20;;;2.33;;
29634;SDS011;16557;54.762;56.068;2023-05-10T04:18:57;7.37;;;2.35;;
29634;SDS011;16557;54.762;56.068;2023-05-10T04:21:27;9.75;;;3.12;;
29634;SDS011;16557;54.762;56.068;2023-05-10T04:23:56;9.18;;;2.27;;
29634;SDS011;16557;54.762;56.068;2023-05-10T04:26:26;4.92;;;2.55;;
29634;SDS011;16557;54.762;56.068;2023-05-10T04:28:55;6.92;;;3.00;;
29634;SDS011;16557;54.762;56.068;2023-05-10T04:31:24;15.13;;;3.20;;
29634;SDS011;16557;54.762;56.068;2023-05-10T04:33:55;11.25;;;3.22;;
29634;SDS011;16557;54.762;56.068;2023-05-10T04:36:24;15.03;;;4.70;;
29634;SDS011;16557;54.762;56.068;2023-05-10T04:38:54;7.42;;;2.90;;
29634;SDS011;16557;54.762;56.068;2023-05-10T04:41:23;11.10;;;2.67;;
29634;SDS011;16557;54.762;56.068;2023-05-10T04:43:52;14.68;;;4.40;;
29634;SDS011;16557;54.762;56.068;2023-05-10T04:46:22;7.35;;;3.08;;
29634;SDS011;16557;54.762;56.068;2023-05-10T04:48:51;6.83;;;2.80;;
29634;SDS011;16557;54.762;56.068;2023-05-10T04:51:20;8.30;;;2.50;;
29634;SDS011;16557;54.762;56.068;2023-05-10T04:53:50;5.92;;;2.95;;
29634;SDS011;16557;54.762;56.068;2023-05-10T04:56:19;9.48;;;3.70;;
29634;SDS011;16557;54.762;56.068;2023-05-10T04:58:49;12.23;;;3.60;;
29634;SDS011;16557;54.762;56.068;2023-05-10T05:01:18;6.97;;;3.47;;
29634;SDS011;16557;54.762;56.068;2023-05-10T05:03:47;9.60;;;3.50;;
29634;SDS011;16557;54.762;56.068;2023-05-10T05:06:17;9.70;;;4.10;;
29634;SDS011;16557;54.762;56.068;2023-05-10T05:08:48;10.78;;;4.95;;
29634;SDS011;16557;54.762;56.068;2023-05-10T05:11:17;8.93;;;3.92;;
29634;SDS011;16557;54.762;56.068;2023-05-10T05:13:47;10.93;;;4.42;;
29634;SDS011;16557;54.762;56.068;2023-05-10T05:16:16;10.23;;;4.65;;
29634;SDS011;16557;54.762;56.068;2023-05-10T05:18:45;8.10;;;4.83;;
29634;SDS011;16557;54.762;56.068;2023-05-10T05:21:15;13.45;;;4.87;;
29634;SDS011;16557;54.762;56.068;2023-05-10T05:23:45;11.78;;;5.30;;
29634;SDS011;16557;54.762;56.068;2023-05-10T05:26:14;10.53;;;5.05;;
29634;SDS011;16557;54.762;56.068;2023-05-10T05:28:44;7.92;;;4.95;;
29634;SDS011;16557;54.762;56.068;2023-05-10T05:31:13;12.23;;;4.92;;
29634;SDS011;16557;54.762;56.068;2023-05-10T05:33:42;13.53;;;5.95;;
29634;SDS011;16557;54.762;56.068;2023-05-10T05:36:11;14.13;;;5.70;;
29634;SDS011;16557;54.762;56.068;2023-05-10T05:38:41;16.25;;;6.33;;
29634;SDS011;16557;54.762;56.068;2023-05-10T05:41:10;16.65;;;5.60;;
29634;SDS011;16557;54.762;56.068;2023-05-10T05:43:39;10.15;;;5.60;;
29634;SDS011;16557;54.762;56.068;2023-05-10T05:46:09;22.35;;;6.97;;
29634;SDS011;16557;54.762;56.068;2023-05-10T05:48:38;13.20;;;6.10;;
29634;SDS011;16557;54.762;56.068;2023-05-10T05:51:07;16.35;;;6.92;;
29634;SDS011;16557;54.762;56.068;2023-05-10T05:53:37;18.90;;;6.75;;
29634;SDS011;16557;54.762;56.068;2023-05-10T05:56:06;17.60;;;6.85;;
29634;SDS011;16557;54.762;56.068;2023-05-10T05:58:37;17.60;;;7.40;;
29634;SDS011;16557;54.762;56.068;2023-05-10T06:01:06;12.18;;;7.15;;
29634;SDS011;16557;54.762;56.068;2023-05-10T06:03:36;14.45;;;6.72;;
29634;SDS011;16557;54.762;56.068;2023-05-10T06:06:05;15.32;;;7.72;;
29634;SDS011;16557;54.762;56.068;2023-05-10T06:08:34;10.82;;;7.03;;
29634;SDS011;16557;54.762;56.068;2023-05-10T06:11:04;16.70;;;8.35;;
29634;SDS011;16557;54.762;56.068;2023-05-10T06:13:33;25.00;;;7.55;;
29634;SDS011;16557;54.762;56.068;2023-05-10T06:16:02;18.98;;;8.63;;
29634;SDS011;16557;54.762;56.068;2023-05-10T06:18:32;10.88;;;7.42;;
29634;SDS011;16557;54.762;56.068;2023-05-10T06:21:02;15.30;;;8.93;;
29634;SDS011;16557;54.762;56.068;2023-05-10T06:23:31;16.80;;;9.18;;
29634;SDS011;16557;54.762;56.068;2023-05-10T06:26:00;20.92;;;9.10;;
29634;SDS011;16557;54.762;56.068;2023-05-10T06:28:31;14.78;;;8.55;;
29634;SDS011;16557;54.762;56.068;2023-05-10T06:31:00;18.90;;;8.73;;
29634;SDS011;16557;54.762;56.068;2023-05-10T06:33:30;16.80;;;8.98;;
29634;SDS011;16557;54.762;56.068;2023-05-10T06:35:59;18.90;;;9.23;;
29634;SDS011;16557;54.762;56.068;2023-05-10T06:38:29;14.98;;;7.87;;
29634;SDS011;16557;54.762;56.068;2023-05-10T06:40:58;17.92;;;8.70;;
29634;SDS011;16557;54.762;56.068;2023-05-10T06:43:28;15.13;;;8.70;;
29634;SDS011;16557;54.762;56.068;2023-05-10T06:45:57;20.15;;;9.35;;
29634;SDS011;16557;54.762;56.068;2023-05-10T06:48:27;17.70;;;9.43;;
29634;SDS011;16557;54.762;56.068;2023-05-10T06:50:56;22.42;;;9.78;;
29634;SDS011;16557;54.762;56.068;2023-05-10T06:53:26;30.15;;;11.65;;
29634;SDS011;16557;54.762;56.068;2023-05-10T06:55:55;15.53;;;8.85;;
29634;SDS011;16557;54.762;56.068;2023-05-10T06:58:28;18.15;;;8.90;;
29634;SDS011;16557;54.762;56.068;2023-05-10T07:01:03;13.08;;;8.50;;
29634;SDS011;16557;54.762;56.068;2023-05-10T07:03:33;13.55;;;8.78;;
29634;SDS011;16557;54.762;56.068;2023-05-10T07:06:03;20.80;;;9.45;;
29634;SDS011;16557;54.762;56.068;2023-05-10T07:08:34;18.15;;;8.75;;
29634;SDS011;16557;54.762;56.068;2023-05-10T07:11:04;13.83;;;9.48;;
29634;SDS011;16557;54.762;56.068;2023-05-10T07:13:35;14.70;;;9.23;;
29634;SDS011;16557;54.762;56.068;2023-05-10T07:16:06;22.73;;;9.58;;
29634;SDS011;16557;54.762;56.068;2023-05-10T07:18:36;16.37;;;9.10;;
29634;SDS011;16557;54.762;56.068;2023-05-10T07:21:05;13.98;;;9.83;;
29634;SDS011;16557;54.762;56.068;2023-05-10T07:23:34;16.62;;;9.60;;
29634;SDS011;16557;54.762;56.068;2023-05-10T07:26:04;12.95;;;9.53;;
29634;SDS011;16557;54.762;56.068;2023-05-10T07:28:33;13.15;;;9.50;;
29634;SDS011;16557;54.762;56.068;2023-05-10T07:31:04;18.10;;;10.05;;
29634;SDS011;16557;54.762;56.068;2023-05-10T07:33:33;20.45;;;11.15;;
29634;SDS011;16557;54.762;56.068;2023-05-10T07:36:02;16.12;;;9.15;;
29634;SDS011;16557;54.762;56.068;2023-05-10T07:38:32;14.15;;;9.73;;
29634;SDS011;16557;54.762;56.068;2023-05-10T07:41:01;18.12;;;9.85;;
29634;SDS011;16557;54.762;56.068;2023-05-10T07:43:30;17.48;;;10.35;;
29634;SDS011;16557;54.762;56.068;2023-05-10T07:45:59;22.05;;;15.08;;
29634;SDS011;16557;54.762;56.068;2023-05-10T07:48:29;20.32;;;10.10;;
29634;SDS011;16557;54.762;56.068;2023-05-10T07:50:58;18.55;;;10.90;;
29634;SDS011;16557;54.762;56.068;2023-05-10T07:53:28;26.07;;;11.48;;
29634;SDS011;16557;54.762;56.068;2023-05-10T07:55:57;15.68;;;10.15;;
29634;SDS011;16557;54.762;56.068;2023-05-10T07:58:27;22.62;;;10.93;;
29634;SDS011;16557;54.762;56.068;2023-05-10T08:00:59;14.75;;;10.30;;
29634;SDS011;16557;54.762;56.068;2023-05-10T08:03:29;16.17;;;10.85;;
29634;SDS011;16557;54.762;56.068;2023-05-10T08:05:58;16.67;;;10.30;;
29634;SDS011;16557;54.762;56.068;2023-05-10T08:08:27;21.23;;;9.95;;
29634;SDS011;16557;54.762;56.068;2023-05-10T08:10:56;16.20;;;9.93;;
29634;SDS011;16557;54.762;56.068;2023-05-10T08:13:26;14.30;;;10.13;;
29634;SDS011;16557;54.762;56.068;2023-05-10T08:15:55;14.13;;;11.10;;
29634;SDS011;16557;54.762;56.068;2023-05-10T08:18:24;20.15;;;10.82;;
29634;SDS011;16557;54.762;56.068;2023-05-10T08:20:54;14.87;;;10.18;;
29634;SDS011;16557;54.762;56.068;2023-05-10T08:23:23;16.07;;;10.72;;
29634;SDS011;16557;54.762;56.068;2023-05-10T08:25:53;14.93;;;10.45;;
29634;SDS011;16557;54.762;56.068;2023-05-10T08:28:25;20.05;;;10.25;;
29634;SDS011;16557;54.762;56.068;2023-05-10T08:30:55;14.98;;;9.63;;
29634;SDS011;16557;54.762;56.068;2023-05-10T08:33:24;16.97;;;9.75;;
29634;SDS011;16557;54.762;56.068;2023-05-10T08:35:53;13.80;;;10.00;;
29634;SDS011;16557;54.762;56.068;2023-05-10T08:38:23;13.95;;;9.53;;
29634;SDS011;16557;54.762;56.068;2023-05-10T08:40:54;31.02;;;10.48;;
29634;SDS011;16557;54.762;56.068;2023-05-10T08:43:27;16.62;;;9.15;;
29634;SDS011;16557;54.762;56.068;2023-05-10T08:45:59;14.15;;;9.08;;
29634;SDS011;16557;54.762;56.068;2023-05-10T08:48:31;17.60;;;9.08;;
29634;SDS011;16557;54.762;56.068;2023-05-10T08:51:02;13.00;;;9.20;;
29634;SDS011;16557;54.762;56.068;2023-05-10T08:53:32;12.60;;;9.00;;
29634;SDS011;16557;54.762;56.068;2023-05-10T08:56:02;10.98;;;8.25;;
29634;SDS011;16557;54.762;56.068;2023-05-10T08:58:32;12.85;;;9.43;;
29634;SDS011;16557;54.762;56.068;2023-05-10T09:01:02;13.83;;;9.43;;
29634;SDS011;16557;54.762;56.068;2023-05-10T09:03:32;13.43;;;8.80;;
29634;SDS011;16557;54.762;56.068;2023-05-10T09:06:01;12.47;;;8.83;;
29634;SDS011;16557;54.762;56.068;2023-05-10T09:08:30;15.70;;;9.00;;
29634;SDS011;16557;54.762;56.068;2023-05-10T09:11:00;15.15;;;9.30;;
29634;SDS011;16557;54.762;56.068;2023-05-10T09:13:30;21.50;;;9.50;;
29634;SDS011;16557;54.762;56.068;2023-05-10T09:15:59;23.27;;;9.08;;
29634;SDS011;16557;54.762;56.068;2023-05-10T09:18:29;21.02;;;9.65;;
29634;SDS011;16557;54.762;56.068;2023-05-10T09:20:59;13.32;;;9.43;;
29634;SDS011;16557;54.762;56.068;2023-05-10T09:23:28;12.78;;;9.40;;
29634;SDS011;16557;54.762;56.068;2023-05-10T09:26:03;19.30;;;10.05;;
29634;SDS011;16557;54.762;56.068;2023-05-10T09:28:33;13.28;;;9.88;;
29634;SDS011;16557;54.762;56.068;2023-05-10T09:31:03;15.18;;;9.53;;
29634;SDS011;16557;54.762;56.068;2023-05-10T09:33:43;12.82;;;8.75;;
29634;SDS011;16557;54.762;56.068;2023-05-10T09:36:08;19.17;;;10.25;;
29634;SDS011;16557;54.762;56.068;2023-05-10T09:38:49;12.47;;;9.00;;
29634;SDS011;16557;54.762;56.068;2023-05-10T09:41:27;13.15;;;9.23;;
29634;SDS011;16557;54.762;56.068;2023-05-10T09:43:55;12.67;;;10.00;;
29634;SDS011;16557;54.762;56.068;2023-05-10T09:46:24;20.25;;;10.25;;
29634;SDS011;16557;54.762;56.068;2023-05-10T09:48:54;18.57;;;8.95;;
29634;SDS011;16557;54.762;56.068;2023-05-10T09:51:24;11.50;;;7.90;;
29634;SDS011;16557;54.762;56.068;2023-05-10T09:56:42;12.10;;;8.90;;
29634;SDS011;16557;54.762;56.068;2023-05-10T09:59:12;13.98;;;9.55;;
29634;SDS011;16557;54.762;56.068;2023-05-10T10:01:41;12.43;;;8.48;;
29634;SDS011;16557;54.762;56.068;2023-05-10T10:04:11;10.10;;;8.33;;
29634;SDS011;16557;54.762;56.068;2023-05-10T10:06:40;11.65;;;8.45;;
29634;SDS011;16557;54.762;56.068;2023-05-10T10:09:09;12.60;;;8.00;;
29634;SDS011;16557;54.762;56.068;2023-05-10T10:11:39;17.20;;;8.68;;
29634;SDS011;16557;54.762;56.068;2023-05-10T10:14:08;14.93;;;9.60;;
29634;SDS011;16557;54.762;56.068;2023-05-10T10:16:38;13.28;;;8.20;;
29634;SDS011;16557;54.762;56.068;2023-05-10T10:19:07;15.65;;;8.93;;
29634;SDS011;16557;54.762;56.068;2023-05-10T10:21:36;17.87;;;9.00;;
29634;SDS011;16557;54.762;56.068;2023-05-10T10:24:06;22.00;;;8.33;;
29634;SDS011;16557;54.762;56.068;2023-05-10T10:26:35;13.72;;;8.28;;
29634;SDS011;16557;54.762;56.068;2023-05-10T10:29:12;16.23;;;8.53;;
29634;SDS011;16557;54.762;56.068;2023-05-10T10:31:47;10.80;;;7.58;;
29634;SDS011;16557;54.762;56.068;2023-05-10T10:34:33;15.98;;;8.35;;
29634;SDS011;16557;54.762;56.068;2023-05-10T10:37:06;14.07;;;8.13;;
29634;SDS011;16557;54.762;56.068;2023-05-10T10:39:37;23.40;;;10.15;;
29634;SDS011;16557;54.762;56.068;2023-05-10T10:42:06;13.48;;;8.75;;
29634;SDS011;16557;54.762;56.068;2023-05-10T10:44:36;14.45;;;8.60;;
29634;SDS011;16557;54.762;56.068;2023-05-10T10:52:30;16.30;;;8.30;;
29634;SDS011;16557;54.762;56.068;2023-05-10T10:55:11;19.25;;;8.50;;
29634;SDS011;16557;54.762;56.068;2023-05-10T10:57:49;13.72;;;8.53;;
29634;SDS011;16557;54.762;56.068;2023-05-10T11:00:27;12.07;;;8.73;;
29634;SDS011;16557;54.762;56.068;2023-05-10T11:02:59;13.50;;;8.18;;
29634;SDS011;16557;54.762;56.068;2023-05-10T11:05:37;15.20;;;8.33;;
29634;SDS011;16557;54.762;56.068;2023-05-10T11:10:50;14.75;;;8.63;;
29634;SDS011;16557;54.762;56.068;2023-05-10T11:13:40;19.80;;;8.63;;
29634;SDS011;16557;54.762;56.068;2023-05-10T11:16:18;12.18;;;8.15;;
29634;SDS011;16557;54.762;56.068;2023-05-10T11:19:06;12.75;;;8.65;;
29634;SDS011;16557;54.762;56.068;2023-05-10T11:22:11;13.55;;;8.20;;
29634;SDS011;16557;54.762;56.068;2023-05-10T11:24:36;12.75;;;8.35;;
29634;SDS011;16557;54.762;56.068;2023-05-10T11:27:05;16.97;;;8.28;;
29634;SDS011;16557;54.762;56.068;2023-05-10T11:29:34;13.10;;;7.90;;
29634;SDS011;16557;54.762;56.068;2023-05-10T11:32:04;18.37;;;8.25;;
29634;SDS011;16557;54.762;56.068;2023-05-10T11:34:35;14.35;;;8.78;;
29634;SDS011;16557;54.762;56.068;2023-05-10T11:37:04;16.20;;;8.90;;
29634;SDS011;16557;54.762;56.068;2023-05-10T11:39:34;13.08;;;8.60;;
29634;SDS011;16557;54.762;56.068;2023-05-10T11:42:03;18.48;;;9.48;;
29634;SDS011;16557;54.762;56.068;2023-05-10T11:44:32;12.05;;;10.05;;
29634;SDS011;16557;54.762;56.068;2023-05-10T11:47:02;15.30;;;9.63;;
29634;SDS011;16557;54.762;56.068;2023-05-10T11:49:31;11.75;;;8.48;;
29634;SDS011;16557;54.762;56.068;2023-05-10T11:52:08;12.88;;;7.85;;
29634;SDS011;16557;54.762;56.068;2023-05-10T11:57:20;12.33;;;8.00;;
29634;SDS011;16557;54.762;56.068;2023-05-10T11:59:54;16.57;;;9.35;;
29634;SDS011;16557;54.762;56.068;2023-05-10T12:02:25;14.00;;;7.90;;
29634;SDS011;16557;54.762;56.068;2023-05-10T12:04:55;13.30;;;7.58;;
29634;SDS011;16557;54.762;56.068;2023-05-10T12:07:25;12.13;;;7.97;;
29634;SDS011;16557;54.762;56.068;2023-05-10T12:10:08;18.77;;;8.55;;
29634;SDS011;16557;54.762;56.068;2023-05-10T12:12:43;14.35;;;8.15;;
29634;SDS011;16557;54.762;56.068;2023-05-10T12:15:20;14.47;;;8.70;;
29634;SDS011;16557;54.762;56.068;2023-05-10T12:17:50;15.25;;;8.70;;
29634;SDS011;16557;54.762;56.068;2023-05-10T12:20:20;14.10;;;8.30;;
29634;SDS011;16557;54.762;56.068;2023-05-10T12:22:58;12.65;;;8.90;;
29634;SDS011;16557;54.762;56.068;2023-05-10T12:25:29;18.95;;;9.08;;
29634;SDS011;16557;54.762;56.068;2023-05-10T12:28:02;12.03;;;8.40;;
29634;SDS011;16557;54.762;56.068;2023-05-10T12:30:35;16.73;;;8.73;;
29634;SDS011;16557;54.762;56.068;2023-05-10T12:33:11;16.55;;;8.08;;
29634;SDS011;16557;54.762;56.068;2023-05-10T12:38:32;13.25;;;7.78;;
29634;SDS011;16557;54.762;56.068;2023-05-10T12:41:02;12.55;;;8.23;;
29634;SDS011;16557;54.762;56.068;2023-05-10T12:43:33;14.33;;;8.85;;
29634;SDS011;16557;54.762;56.068;2023-05-10T12:46:06;16.45;;;9.88;;
29634;SDS011;16557;54.762;56.068;2023-05-10T12:48:36;13.28;;;8.73;;
29634;SDS011;16557;54.762;56.068;2023-05-10T12:51:06;14.25;;;8.45;;
29634;SDS011;16557;54.762;56.068;2023-05-10T12:53:37;14.35;;;8.78;;
29634;SDS011;16557;54.762;56.068;2023-05-10T12:56:07;18.10;;;8.48;;
29634;SDS011;16557;54.762;56.068;2023-05-10T12:58:36;15.68;;;8.40;;
29634;SDS011;16557;54.762;56.068;2023-05-10T13:01:06;12.75;;;8.05;;
29634;SDS011;16557;54.762;56.068;2023-05-10T13:03:35;14.03;;;8.43;;
29634;SDS011;16557;54.762;56.068;2023-05-10T13:06:05;13.30;;;8.58;;
29634;SDS011;16557;54.762;56.068;2023-05-10T13:08:34;13.55;;;8.25;;
29634;SDS011;16557;54.762;56.068;2023-05-10T13:11:03;12.15;;;8.15;;
29634;SDS011;16557;54.762;56.068;2023-05-10T13:13:33;19.02;;;9.30;;
29634;SDS011;16557;54.762;56.068;2023-05-10T13:16:03;16.93;;;8.55;;
29634;SDS011;16557;54.762;56.068;2023-05-10T13:18:32;14.40;;;8.38;;
29634;SDS011;16557;54.762;56.068;2023-05-10T13:21:04;16.10;;;8.00;;
29634;SDS011;16557;54.762;56.068;2023-05-10T13:23:34;14.65;;;9.23;;
29634;SDS011;16557;54.762;56.068;2023-05-10T13:26:04;12.25;;;7.87;;
29634;SDS011;16557;54.762;56.068;2023-05-10T13:28:33;18.17;;;8.75;;
29634;SDS011;16557;54.762;56.068;2023-05-10T13:31:02;11.75;;;8.05;;
29634;SDS011;16557;54.762;56.068;2023-05-10T13:33:32;13.72;;;8.40;;
29634;SDS011;16557;54.762;56.068;2023-05-10T13:36:01;23.67;;;9.40;;
29634;SDS011;16557;54.762;56.068;2023-05-10T13:38:30;12.63;;;9.08;;
29634;SDS011;16557;54.762;56.068;2023-05-10T13:41:00;16.55;;;8.60;;
29634;SDS011;16557;54.762;56.068;2023-05-10T13:43:29;16.73;;;8.20;;
29634;SDS011;16557;54.762;56.068;2023-05-10T13:45:58;21.90;;;10.48;;
29634;SDS011;16557;54.762;56.068;2023-05-10T13:48:28;12.85;;;7.78;;
29634;SDS011;16557;54.762;56.068;2023-05-10T13:50:57;15.75;;;8.33;;
29634;SDS011;16557;54.762;56.068;2023-05-10T13:53:26;15.50;;;9.15;;
29634;SDS011;16557;54.762;56.068;2023-05-10T13:59:04;16.95;;;9.25;;
29634;SDS011;16557;54.762;56.068;2023-05-10T14:01:35;15.38;;;9.10;;
29634;SDS011;16557;54.762;56.068;2023-05-10T14:04:04;17.15;;;8.40;;
29634;SDS011;16557;54.762;56.068;2023-05-10T14:06:35;15.43;;;8.50;;
29634;SDS011;16557;54.762;56.068;2023-05-10T14:09:05;20.95;;;9.58;;
29634;SDS011;16557;54.762;56.068;2023-05-10T14:11:34;24.40;;;9.13;;
29634;SDS011;16557;54.762;56.068;2023-05-10T14:14:04;15.53;;;8.78;;
29634;SDS011;16557;54.762;56.068;2023-05-10T14:16:33;14.80;;;8.53;;
29634;SDS011;16557;54.762;56.068;2023-05-10T14:19:02;18.70;;;8.88;;
29634;SDS011;16557;54.762;56.068;2023-05-10T14:21:32;12.90;;;8.83;;
29634;SDS011;16557;54.762;56.068;2023-05-10T14:24:02;30.10;;;9.53;;
29634;SDS011;16557;54.762;56.068;2023-05-10T14:26:31;23.80;;;12.60;;
29634;SDS011;16557;54.762;56.068;2023-05-10T14:29:01;18.87;;;9.25;;
29634;SDS011;16557;54.762;56.068;2023-05-10T14:31:31;21.95;;;10.00;;
29634;SDS011;16557;54.762;56.068;2023-05-10T14:34:00;29.95;;;13.45;;
29634;SDS011;16557;54.762;56.068;2023-05-10T14:36:30;13.15;;;9.80;;
29634;SDS011;16557;54.762;56.068;2023-05-10T14:38:59;13.70;;;8.78;;
29634;SDS011;16557;54.762;56.068;2023-05-10T14:41:29;17.75;;;9.73;;
29634;SDS011;16557;54.762;56.068;2023-05-10T14:43:59;13.60;;;9.70;;
29634;SDS011;16557;54.762;56.068;2023-05-10T14:46:28;17.45;;;9.38;;
29634;SDS011;16557;54.762;56.068;2023-05-10T14:48:58;14.47;;;8.58;;
29634;SDS011;16557;54.762;56.068;2023-05-10T14:51:27;22.50;;;10.03;;
29634;SDS011;16557;54.762;56.068;2023-05-10T14:53:58;13.10;;;7.97;;
29634;SDS011;16557;54.762;56.068;2023-05-10T14:56:28;16.42;;;8.65;;
29634;SDS011;16557;54.762;56.068;2023-05-10T14:58:57;17.80;;;8.30;;
29634;SDS011;16557;54.762;56.068;2023-05-10T15:01:27;14.13;;;7.55;;
29634;SDS011;16557;54.762;56.068;2023-05-10T15:03:56;13.80;;;8.78;;
29634;SDS011;16557;54.762;56.068;2023-05-10T15:06:32;20.02;;;9.60;;
29634;SDS011;16557;54.762;56.068;2023-05-10T15:09:02;12.10;;;7.53;;
29634;SDS011;16557;54.762;56.068;2023-05-10T15:11:32;17.50;;;8.30;;
29634;SDS011;16557;54.762;56.068;2023-05-10T15:14:01;16.12;;;8.85;;